Funchalense 5 — CSKN — position and weather

sailwx.info

Track history (hours):
 
Tides and Currents Weather Stations Pressure Air Temp Water Temp Dewpoint Dewpoint Depression Visibility Wind Speed Wind Dir Waves Ship Positions

Funchalense 5

Last reported at 2017-Mar-19 21:33 UTC. Time now 2017-Mar-24 06:14 UTC.
Position N 35°01' W 014°12'.

Length 127 m; draft 7.5 m.

Type: Ship. MMSI: 255804250.

Date/timePositionNaut miles runAvg speedWind from/ knotsBaromVisibWave heightAir tempDewpointWater temp
2017-Mar-19 21:33N 35°01' W 014°12'7016.4
2017-Mar-19 17:17N 35°50' W 013°11'1816.9
2017-Mar-19 16:15N 36°02' W 012°55'1217.2
2017-Mar-19 15:33N 36°10' W 012°44'1716.9
2017-Mar-19 14:32N 36°21' W 012°28'2016.8
2017-Mar-19 13:22N 36°35' W 012°10'12316.9
2017-Mar-19 06:06N 37°58' W 010°17'916.8
2017-Mar-19 05:33N 38°04' W 010°08'1716.7
2017-Mar-19 04:33N 38°15' W 009°53'1716.5
2017-Mar-19 03:33N 38°26' W 009°37'1716.7
2017-Mar-19 02:31N 38°38' W 009°21'1212.0
2017-Mar-19 01:31N 38°43' W 009°07'0 0.1
2017-Mar-18 23:27N 38°43' W 009°07'0 0.0
2017-Mar-18 22:32N 38°43' W 009°07'0 0.0
2017-Mar-18 21:20N 38°43' W 009°07'0 0.0
2017-Mar-18 20:26N 38°43' W 009°07'0 0.0
2017-Mar-18 18:31N 38°43' W 009°07'0 0.0
2017-Mar-18 17:33N 38°43' W 009°07'0 0.0
2017-Mar-18 16:33N 38°43' W 009°07'0 0.0
2017-Mar-18 14:08N 38°43' W 009°07'0 0.0
2017-Mar-18 12:28N 38°43' W 009°07'0 0.0
2017-Mar-18 11:28N 38°43' W 009°07'0 0.0
2017-Mar-18 10:33N 38°43' W 009°07'0 0.0
2017-Mar-18 09:33N 38°43' W 009°07'0 0.0
2017-Mar-18 08:29N 38°43' W 009°07'0 0.1
2017-Mar-18 07:28N 38°43' W 009°07'9 9.9
2017-Mar-18 06:34N 38°41' W 009°18'1313.3
2017-Mar-18 05:33N 38°38' W 009°35'1211.9
2017-Mar-18 04:33N 38°48' W 009°44'1514.8
2017-Mar-18 03:33N 39°03' W 009°44'1514.8
2017-Mar-18 02:34N 39°17' W 009°45'1515.0
2017-Mar-18 01:33N 39°32' W 009°44'3014.7
2017-Mar-17 23:33N 40°00' W 009°31'1414.5
2017-Mar-17 22:33N 40°13' W 009°23'1514.7
2017-Mar-17 21:33N 40°26' W 009°14'1514.5
2017-Mar-17 20:33N 40°39' W 009°05'103 2.6
2017-Mar-16 05:12N 39°25' W 010°39'1014.9
2017-Mar-16 04:31N 39°17' W 010°46'1515.3
2017-Mar-16 03:33N 39°05' W 010°58'1515.4
2017-Mar-16 02:33N 38°53' W 011°10'3115.4
2017-Mar-16 00:33N 38°28' W 011°34'  
2017-Mar-12 04:04N 38°05' W 010°04'916.3
2017-Mar-12 03:31N 38°11' W 009°56'1516.1
2017-Mar-12 02:33N 38°22' W 009°42'1616.1
2017-Mar-12 01:33N 38°34' W 009°27'1612.6
2017-Mar-12 00:16N 38°42' W 009°09'3 0.5
2017-Mar-11 19:27N 38°43' W 009°07'0 0.0
2017-Mar-11 18:30N 38°43' W 009°07'0 0.0
2017-Mar-11 17:33N 38°43' W 009°07'0 0.0
2017-Mar-11 16:23N 38°43' W 009°07'0 0.0
2017-Mar-11 15:29N 38°43' W 009°07'0 0.0
2017-Mar-11 12:24N 38°43' W 009°07'0 0.0
2017-Mar-11 11:33N 38°43' W 009°07'0 0.0
2017-Mar-11 10:33N 38°43' W 009°07'0 0.0
2017-Mar-11 09:26N 38°43' W 009°07'0 0.0
2017-Mar-11 08:26N 38°43' W 009°07'0 0.0
2017-Mar-11 07:28N 38°43' W 009°07'0 0.0
2017-Mar-11 06:31N 38°43' W 009°07'0 0.0
2017-Mar-11 05:30N 38°43' W 009°07'0 0.0
2017-Mar-11 04:33N 38°43' W 009°07'0 0.0
2017-Mar-11 03:30N 38°43' W 009°07'7 6.3
2017-Mar-11 02:24N 38°41' W 009°15'1315.6
2017-Mar-11 01:34N 38°38' W 009°32'1312.9
2017-Mar-11 00:33N 38°47' W 009°43'1716.7
2017-Mar-10 23:33N 39°03' W 009°44'1716.8
2017-Mar-10 22:33N 39°20' W 009°44'1716.8
2017-Mar-10 21:33N 39°37' W 009°41'1716.8
2017-Mar-10 20:34N 39°53' W 009°34'1716.9
2017-Mar-10 19:34N 40°08' W 009°24'1716.8
2017-Mar-10 18:33N 40°23' W 009°15'  
Track history (hours):
 
Tides and Currents Weather Stations Pressure Air Temp Water Temp Dewpoint Dewpoint Depression Visibility Wind Speed Wind Dir Waves Ship Positions

Funchalense 5

Last reported at 2017-Mar-19 21:33 UTC. Time now 2017-Mar-24 06:14 UTC.
Position N 35°01' W 014°12'.

Length 127 m; draft 7.5 m.

Type: Ship. MMSI: 255804250.

Date/timePositionNaut miles runAvg speedWind from/ knotsBaromVisibWave heightAir tempDewpointWater temp
2017-Mar-19 21:33N 35°01' W 014°12'7016.4
2017-Mar-19 17:17N 35°50' W 013°11'1816.9
2017-Mar-19 16:15N 36°02' W 012°55'1217.2
2017-Mar-19 15:33N 36°10' W 012°44'1716.9
2017-Mar-19 14:32N 36°21' W 012°28'2016.8
2017-Mar-19 13:22N 36°35' W 012°10'12316.9
2017-Mar-19 06:06N 37°58' W 010°17'916.8
2017-Mar-19 05:33N 38°04' W 010°08'1716.7
2017-Mar-19 04:33N 38°15' W 009°53'1716.5
2017-Mar-19 03:33N 38°26' W 009°37'1716.7
2017-Mar-19 02:31N 38°38' W 009°21'1212.0
2017-Mar-19 01:31N 38°43' W 009°07'0 0.1
2017-Mar-18 23:27N 38°43' W 009°07'0 0.0
2017-Mar-18 22:32N 38°43' W 009°07'0 0.0
2017-Mar-18 21:20N 38°43' W 009°07'0 0.0
2017-Mar-18 20:26N 38°43' W 009°07'0 0.0
2017-Mar-18 18:31N 38°43' W 009°07'0 0.0
2017-Mar-18 17:33N 38°43' W 009°07'0 0.0
2017-Mar-18 16:33N 38°43' W 009°07'0 0.0
2017-Mar-18 14:08N 38°43' W 009°07'0 0.0
2017-Mar-18 12:28N 38°43' W 009°07'0 0.0
2017-Mar-18 11:28N 38°43' W 009°07'0 0.0
2017-Mar-18 10:33N 38°43' W 009°07'0 0.0
2017-Mar-18 09:33N 38°43' W 009°07'0 0.0
2017-Mar-18 08:29N 38°43' W 009°07'0 0.1
2017-Mar-18 07:28N 38°43' W 009°07'9 9.9
2017-Mar-18 06:34N 38°41' W 009°18'1313.3
2017-Mar-18 05:33N 38°38' W 009°35'1211.9
2017-Mar-18 04:33N 38°48' W 009°44'1514.8
2017-Mar-18 03:33N 39°03' W 009°44'1514.8
2017-Mar-18 02:34N 39°17' W 009°45'1515.0
2017-Mar-18 01:33N 39°32' W 009°44'3014.7
2017-Mar-17 23:33N 40°00' W 009°31'1414.5
2017-Mar-17 22:33N 40°13' W 009°23'1514.7
2017-Mar-17 21:33N 40°26' W 009°14'1514.5
2017-Mar-17 20:33N 40°39' W 009°05'103 2.6
2017-Mar-16 05:12N 39°25' W 010°39'1014.9
2017-Mar-16 04:31N 39°17' W 010°46'1515.3
2017-Mar-16 03:33N 39°05' W 010°58'1515.4
2017-Mar-16 02:33N 38°53' W 011°10'3115.4
2017-Mar-16 00:33N 38°28' W 011°34'  
2017-Mar-12 04:04N 38°05' W 010°04'916.3
2017-Mar-12 03:31N 38°11' W 009°56'1516.1
2017-Mar-12 02:33N 38°22' W 009°42'1616.1
2017-Mar-12 01:33N 38°34' W 009°27'1612.6
2017-Mar-12 00:16N 38°42' W 009°09'3 0.5
2017-Mar-11 19:27N 38°43' W 009°07'0 0.0
2017-Mar-11 18:30N 38°43' W 009°07'0 0.0
2017-Mar-11 17:33N 38°43' W 009°07'0 0.0
2017-Mar-11 16:23N 38°43' W 009°07'0 0.0
2017-Mar-11 15:29N 38°43' W 009°07'0 0.0
2017-Mar-11 12:24N 38°43' W 009°07'0 0.0
2017-Mar-11 11:33N 38°43' W 009°07'0 0.0
2017-Mar-11 10:33N 38°43' W 009°07'0 0.0
2017-Mar-11 09:26N 38°43' W 009°07'0 0.0
2017-Mar-11 08:26N 38°43' W 009°07'0 0.0
2017-Mar-11 07:28N 38°43' W 009°07'0 0.0
2017-Mar-11 06:31N 38°43' W 009°07'0 0.0
2017-Mar-11 05:30N 38°43' W 009°07'0 0.0
2017-Mar-11 04:33N 38°43' W 009°07'0 0.0
2017-Mar-11 03:30N 38°43' W 009°07'7 6.3
2017-Mar-11 02:24N 38°41' W 009°15'1315.6
2017-Mar-11 01:34N 38°38' W 009°32'1312.9
2017-Mar-11 00:33N 38°47' W 009°43'1716.7
2017-Mar-10 23:33N 39°03' W 009°44'1716.8
2017-Mar-10 22:33N 39°20' W 009°44'1716.8
2017-Mar-10 21:33N 39°37' W 009°41'1716.8
2017-Mar-10 20:34N 39°53' W 009°34'1716.9
2017-Mar-10 19:34N 40°08' W 009°24'1716.8
2017-Mar-10 18:33N 40°23' W 009°15'  

Dump ship's entire track history